Findlay Airport
KFDY : now visible

Airfield :











YOU CAN JOIN US ON...

 
LOGIN :

Register | Disclaimer

   EN    FR    IT 

 









Legend :    VFR   Marginal VFR   IFR   Intensive IFR   Very Intensive IFR
Visi :
Ceiling :
>= 8 km
>= 3000ft
5 to 8 km
1000 to 3000 ft
1500m to 5 km
500 to 1000 ft
800 to 1500m
200 to 500 ft
< 800m
< 200 ft
Symbols :   Thunderstorms  Fog  Heavy snow  Heavy precipitations  Wind > 20 kt






- Airport Elevation : 813 ft


KFDY - Findlay

CURRENT METAR :
  • 291517Z AUTO 04008KT 4SM -RA BR BKN007 OVC010 07/06 A2974 RMK AO2 P0004 T00720056

EXPIRED METARs :
  • 291506Z AUTO 02008KT 4SM -RA BR SCT005 OVC010 07/06 A2975 RMK AO2 P0003 T00720056
  • 291452Z AUTO 01009KT 4SM RA BR BKN007 BKN010 OVC047 07/06 A2975 RMK AO2 SLP074 P0010 60028 T00720056 56006
  • 291451Z AUTO 02007KT 4SM RA BR BKN007 OVC047 07/06 A2975 RMK AO2 P0010
  • 291353Z AUTO 07004KT 3SM RA BR FEW009 BKN055 OVC065 07/05 A2976 RMK AO2 SLP076 P0009 T00670050
  • 291253Z AUTO 03009KT 3SM RA BR FEW009 BKN046 OVC060 07/06 A2975 RMK AO2 SLP074 P0009 T00720056

TAF KFDY
Valid from the 29 at 16:00 until the 30 at 12:00 UTC


291544Z 2916/3012 04010KT 5SM -RA BR SCT008 OVC030
TEMPO 2916/2917 BKN007
FM291900 01009KT 5SM -RA BR SCT005 OVC020
FM300000 35011KT P6SM SCT005 BKN015
KZOB FIR / North America



MET'MAP, your aeronautical weather chart ! - Copyright ORBIFLY December 2007 - Disclaimer

ORBIFLY MET'MAP TEAM :

Programming & Development : Alexandra Zaïnal
Concept & original design : Baudouin d'Aumeries
Assistance for programming : Marc-Olivier Méhu
Technical & hardware support : Manuel Goepfert

Contact : metmap@orbifly.com




SOURCES & CREDITS :

   NOAA       Earth
Advisory